createdAt,value
2023-01-31T00:01:43.962Z,99855.72
2023-01-31T00:06:51.191Z,99842.69
2023-01-31T00:11:53.433Z,99831.44
2023-01-31T00:16:55.394Z,99847.88
2023-01-31T00:21:57.708Z,99862.56
2023-01-31T00:26:59.719Z,99861.75
2023-01-31T00:32:01.633Z,99862.66
2023-01-31T00:37:03.427Z,99860.88
2023-01-31T00:42:07.612Z,99870.34
2023-01-31T00:47:09.285Z,99873.91
2023-01-31T00:52:10.947Z,99875.66
2023-01-31T00:57:12.681Z,99886.09
2023-01-31T01:02:15.059Z,99899.09
2023-01-31T01:07:16.841Z,99904.31
2023-01-31T01:12:18.645Z,99906.03
2023-01-31T01:17:20.697Z,99916.44
2023-01-31T01:22:24.060Z,99942.38
2023-01-31T01:27:27.327Z,99945.84
2023-01-31T01:32:29.769Z,99956.22
2023-01-31T01:37:31.656Z,99950.16
2023-01-31T01:42:36.321Z,99959.66
2023-01-31T01:48:06.907Z,99961.38
2023-01-31T01:53:17.818Z,99971.78
2023-01-31T01:58:24.435Z,99976.13
2023-01-31T02:03:27.315Z,99987.38
2023-01-31T02:08:32.252Z,99989.97
2023-01-31T02:13:34.570Z,99991.69
2023-01-31T02:18:36.332Z,99993.41
2023-01-31T02:23:40.993Z,99970.06
2023-01-31T02:28:55.020Z,99999.47
2023-01-31T02:34:07.821Z,100007.28
2023-01-31T02:39:24.614Z,100021.97
2023-01-31T02:44:59.243Z,100032.34
2023-01-31T02:50:19.468Z,100031.50
2023-01-31T02:55:56.467Z,100048.81
2023-01-31T03:01:04.164Z,100047.06
2023-01-31T03:06:24.745Z,100073.88
2023-01-31T03:11:47.857Z,100087.75
2023-01-31T03:17:21.644Z,100088.59
2023-01-31T03:22:31.677Z,100096.38
2023-01-31T03:27:34.990Z,100118.84
2023-01-31T03:32:51.520Z,100110.19
2023-01-31T03:38:17.656Z,100126.63
2023-01-31T03:43:27.179Z,100137.00
2023-01-31T03:48:37.183Z,100133.38
2023-01-31T03:53:46.796Z,100132.47
2023-01-31T03:58:53.815Z,100139.34
2023-01-31T04:03:58.423Z,100144.53
2023-01-31T04:09:00.607Z,100128.88
2023-01-31T04:14:02.364Z,100124.53
2023-01-31T04:19:04.079Z,100135.84
2023-01-31T04:24:06.115Z,100135.91
2023-01-31T04:29:08.017Z,100131.69
2023-01-31T04:34:10.295Z,100143.00
2023-01-31T04:39:13.663Z,100148.19
2023-01-31T04:44:16.692Z,100150.84
2023-01-31T04:49:18.375Z,100156.91
2023-01-31T04:54:20.350Z,100165.53
2023-01-31T04:59:22.035Z,100169.03
2023-01-31T05:04:23.784Z,100169.88
2023-01-31T05:09:26.077Z,100164.66
2023-01-31T05:14:28.058Z,100171.53
2023-01-31T05:19:30.113Z,100162.06
2023-01-31T05:24:33.683Z,100169.88
2023-01-31T05:29:35.468Z,100188.06
2023-01-31T05:34:37.416Z,100196.72
2023-01-31T05:39:39.222Z,100182.88
2023-01-31T05:44:40.930Z,100175.94
2023-01-31T05:49:42.584Z,100173.31
2023-01-31T05:54:44.258Z,100181.19
2023-01-31T05:59:45.950Z,100172.50
2023-01-31T06:04:47.725Z,100182.03
2023-01-31T06:09:49.517Z,100180.31
2023-01-31T06:15:16.172Z,100183.75
2023-01-31T06:20:18.148Z,100195.88
2023-01-31T06:25:20.103Z,100188.94
2023-01-31T06:30:21.985Z,100191.47
2023-01-31T06:35:23.660Z,100200.16
2023-01-31T06:40:25.563Z,100216.59
2023-01-31T06:45:27.353Z,100215.66
2023-01-31T06:50:29.041Z,100195.72
2023-01-31T06:55:30.805Z,100195.78
2023-01-31T07:00:32.915Z,100197.50
2023-01-31T07:05:34.711Z,100203.63
2023-01-31T07:10:36.401Z,100214.00
2023-01-31T07:15:38.129Z,100224.41
2023-01-31T07:20:40.966Z,100226.19
2023-01-31T07:25:42.712Z,100225.28
2023-01-31T07:30:46.205Z,100228.81
2023-01-31T07:35:48.044Z,100227.94
2023-01-31T07:40:50.331Z,100250.44
2023-01-31T07:45:52.294Z,100246.97
2023-01-31T07:51:02.057Z,100246.94
2023-01-31T07:56:14.258Z,100246.97
2023-01-31T08:01:42.514Z,100247.84
2023-01-31T08:06:46.305Z,100245.25
2023-01-31T08:11:48.182Z,100240.09
2023-01-31T08:16:49.900Z,100241.84
2023-01-31T08:21:51.611Z,100239.28
2023-01-31T08:26:53.638Z,100236.66
2023-01-31T08:31:55.443Z,100256.63
2023-01-31T08:36:57.325Z,100243.59
2023-01-31T08:41:59.012Z,100232.34
2023-01-31T08:47:02.327Z,100241.00
2023-01-31T08:52:04.365Z,100234.94
2023-01-31T08:57:06.128Z,100243.59
2023-01-31T09:02:11.188Z,100231.47
2023-01-31T09:07:12.851Z,100240.16
2023-01-31T09:12:14.475Z,100225.41
2023-01-31T09:17:16.168Z,100236.69
2023-01-31T09:22:18.036Z,100226.25
2023-01-31T09:27:19.722Z,100225.38
2023-01-31T09:32:21.385Z,100229.69
2023-01-31T09:37:23.106Z,100215.78
2023-01-31T09:42:31.913Z,100208.84
2023-01-31T09:47:38.095Z,100193.16
2023-01-31T09:52:39.781Z,100190.56
2023-01-31T09:57:56.878Z,100176.69
2023-01-31T10:03:18.435Z,100175.78
2023-01-31T10:08:54.409Z,100167.84
2023-01-31T10:14:05.113Z,100164.41
2023-01-31T10:19:12.510Z,100166.16
2023-01-31T10:24:46.314Z,100160.06
2023-01-31T10:29:54.133Z,100156.59
2023-01-31T10:35:21.913Z,100140.09
2023-01-31T10:40:35.763Z,100137.56
2023-01-31T10:45:38.567Z,100126.34
2023-01-31T10:50:48.655Z,100119.38
2023-01-31T10:56:13.479Z,100109.84
2023-01-31T11:01:15.332Z,100103.81
2023-01-31T11:06:17.630Z,100083.84
2023-01-31T11:11:22.961Z,100077.78
2023-01-31T11:16:28.229Z,100064.72
2023-01-31T11:21:34.183Z,100065.56
2023-01-31T11:26:39.084Z,100043.84
2023-01-31T11:31:43.171Z,100035.09
2023-01-31T11:36:46.535Z,100030.63
2023-01-31T11:41:48.534Z,100004.50
2023-01-31T11:46:54.512Z,100011.44
2023-01-31T11:51:59.370Z,100012.28
2023-01-31T11:57:02.049Z,99996.53
2023-01-31T12:02:04.749Z,100000.75
2023-01-31T12:07:22.407Z,99985.16
2023-01-31T12:12:31.391Z,99977.09
2023-01-31T12:17:42.896Z,99996.06
2023-01-31T12:23:06.446Z,99957.03
2023-01-31T12:28:37.793Z,99952.41
2023-01-31T12:34:10.548Z,99947.50
2023-01-31T12:39:44.274Z,99952.13
2023-01-31T12:44:51.302Z,99957.50
2023-01-31T12:50:17.393Z,99930.91
2023-01-31T12:55:47.740Z,99910.97
2023-01-31T13:00:56.595Z,99901.50
2023-01-31T13:06:06.993Z,99880.78
2023-01-31T13:11:13.856Z,99880.78
2023-01-31T13:16:41.789Z,99877.38
2023-01-31T13:21:49.028Z,99877.41
2023-01-31T13:26:54.927Z,99870.66
2023-01-31T13:32:25.604Z,99844.78
2023-01-31T13:37:30.475Z,99840.56
2023-01-31T13:42:33.256Z,99816.34
2023-01-31T13:47:48.018Z,99810.41
2023-01-31T13:52:57.005Z,99801.78
2023-01-31T13:58:06.061Z,99772.31
2023-01-31T14:03:16.831Z,99788.75
2023-01-31T14:08:38.964Z,99782.69
2023-01-31T14:13:43.903Z,99787.94
2023-01-31T14:18:46.760Z,99782.78
2023-01-31T14:23:48.569Z,99768.88
2023-01-31T14:28:50.800Z,99754.16
2023-01-31T14:33:57.434Z,99745.50
2023-01-31T14:39:53.700Z,99755.94
2023-01-31T14:44:59.385Z,99748.19
2023-01-31T14:57:46.009Z,99726.50
2023-01-31T15:02:47.951Z,99737.75
2023-01-31T15:08:01.923Z,99728.28
2023-01-31T15:13:04.031Z,99721.34
2023-01-31T15:18:22.102Z,99692.84
2023-01-31T15:23:27.664Z,99726.72
2023-01-31T15:28:34.810Z,99716.34
2023-01-31T15:33:41.377Z,99713.72
2023-01-31T15:39:16.902Z,99724.16
2023-01-31T15:44:24.002Z,99726.72
2023-01-31T15:49:40.778Z,99738.00
2023-01-31T15:55:00.059Z,99727.63
2023-01-31T16:00:02.112Z,99738.03
2023-01-31T16:05:09.687Z,99732.06
2023-01-31T16:10:13.268Z,99729.50
2023-01-31T16:15:21.884Z,99725.19
2023-01-31T16:20:57.822Z,99721.75
2023-01-31T16:26:08.625Z,99721.72
2023-01-31T16:31:13.921Z,99720.84
2023-01-31T16:36:20.679Z,99728.59
2023-01-31T16:41:42.935Z,99739.81
2023-01-31T16:46:46.506Z,99719.00
2023-01-31T16:51:49.411Z,99725.06
2023-01-31T16:57:03.007Z,99729.38
2023-01-31T17:02:17.926Z,99732.84
2023-01-31T17:07:27.316Z,99734.59
2023-01-31T17:12:32.531Z,99743.28
2023-01-31T17:17:37.318Z,99733.75
2023-01-31T17:22:39.180Z,99747.56
2023-01-31T17:27:41.146Z,99763.13
2023-01-31T17:32:42.955Z,99729.34
2023-01-31T17:37:45.339Z,99752.59
2023-01-31T17:42:47.175Z,99754.34
2023-01-31T17:47:49.062Z,99743.91
2023-01-31T17:52:51.398Z,99745.63
2023-01-31T17:57:53.235Z,99721.34
2023-01-31T18:02:54.954Z,99742.97
2023-01-31T18:07:56.646Z,99725.56
2023-01-31T18:12:58.436Z,99731.53
2023-01-31T18:18:00.824Z,99721.00
2023-01-31T18:23:02.535Z,99719.22
2023-01-31T18:28:04.408Z,99721.75
2023-01-31T18:33:06.127Z,99707.84
2023-01-31T18:38:08.689Z,99696.53
2023-01-31T18:43:10.656Z,99699.06
2023-01-31T18:48:12.440Z,99695.50
2023-01-31T18:53:14.164Z,99698.09
2023-01-31T18:58:16.531Z,99713.69
2023-01-31T19:03:18.243Z,99692.03
2023-01-31T19:08:19.972Z,99701.53
2023-01-31T19:13:25.756Z,99692.88
2023-01-31T19:18:27.562Z,99691.25
2023-01-31T19:23:29.396Z,99688.66
2023-01-31T19:28:31.684Z,99701.53
2023-01-31T19:33:34.448Z,99691.13
2023-01-31T19:38:36.139Z,99673.72
2023-01-31T19:43:38.178Z,99673.59
2023-01-31T19:48:39.929Z,99663.28
2023-01-31T19:53:42.542Z,99677.13
2023-01-31T19:58:44.569Z,99699.50
2023-01-31T20:03:47.267Z,99703.03
2023-01-31T20:08:54.954Z,99717.69
2023-01-31T20:13:58.067Z,99716.03
2023-01-31T20:19:06.345Z,99709.91
2023-01-31T20:24:08.559Z,99699.84
2023-01-31T20:29:12.303Z,99708.75
2023-01-31T20:34:13.992Z,99719.13
2023-01-31T20:39:15.615Z,99704.50
2023-01-31T20:44:17.316Z,99684.34
2023-01-31T20:49:21.313Z,99683.44
2023-01-31T20:54:23.342Z,99692.06
2023-01-31T20:59:25.099Z,99684.97
2023-01-31T21:04:26.737Z,99697.13
2023-01-31T21:09:28.957Z,99704.06
2023-01-31T21:14:30.643Z,99733.72
2023-01-31T21:19:32.275Z,99715.88
2023-01-31T21:24:33.956Z,99720.34
2023-01-31T21:29:35.608Z,99714.25
2023-01-31T21:34:38.841Z,99721.16
2023-01-31T21:39:42.265Z,99730.81
2023-01-31T21:44:45.331Z,99740.25
2023-01-31T21:49:47.177Z,99753.88
2023-01-31T21:54:49.032Z,99740.00
2023-01-31T21:59:50.844Z,99745.97
2023-01-31T22:04:52.663Z,99731.22
2023-01-31T22:09:54.471Z,99734.53
2023-01-31T22:14:56.242Z,99727.53
2023-01-31T22:19:57.897Z,99717.88
2023-01-31T22:24:59.581Z,99725.63
2023-01-31T22:30:15.224Z,99706.44
2023-01-31T22:35:17.594Z,99709.75
2023-01-31T22:40:19.696Z,99695.81
2023-01-31T22:45:21.637Z,99709.00
2023-01-31T22:50:23.568Z,99729.53
2023-01-31T22:55:25.423Z,99724.56
2023-01-31T23:00:27.102Z,99736.66
2023-01-31T23:05:29.039Z,99731.31
2023-01-31T23:10:30.664Z,99733.22
2023-01-31T23:15:32.772Z,99734.81
2023-01-31T23:20:34.509Z,99735.09
2023-01-31T23:25:36.201Z,99732.44
2023-01-31T23:30:38.098Z,99744.56
2023-01-31T23:35:39.768Z,99741.88
2023-01-31T23:40:41.663Z,99744.56
2023-01-31T23:45:43.421Z,99755.78
2023-01-31T23:50:45.102Z,99748.75
2023-01-31T23:55:46.712Z,99748.91
